Canadian, Texas
Current Conditions -  °F | °C
As of 3:35 AM on Friday 31 Oct 2014 (Local Time) from KHHF Reporting Station
Clear Clear  
Wind Chill: 46°   Ceiling: Unl
Heat Index: 46°   Visibility: NA
Dew Point: 34°   Wind: 0mph
Humidity: 64%   Direction: NA
Pressure: 30.39"   Gusts: NA
Location:  35.91°N, 100.38°W
Report Text: KHHF 310835Z AUTO 00000KT CLR 08/01 A3039 RMK AO2 T00770012 PWINO
Loading
Personal Weather Stations






























Interactive Weather Map
Tropical Storm Tracking
New forecast layout! Learn more

10-Day Weather Forecast

Advertisements
Track Severe Weather on mobile